sensor_id;sensor_type;location;lat;lon;timestamp;pressure;altitude;pressure_sealevel;temperature;humidity
37206;BME280;23099;42.636;23.198;2023-09-19T00:00:56;92374.56;;;14.16;97.88
37206;BME280;23099;42.636;23.198;2023-09-19T00:03:24;92379.53;;;14.14;97.79
37206;BME280;23099;42.636;23.198;2023-09-19T00:05:51;92377.63;;;14.14;98.22
37206;BME280;23099;42.636;23.198;2023-09-19T00:08:18;92379.16;;;14.15;98.06
37206;BME280;23099;42.636;23.198;2023-09-19T00:10:48;92374.56;;;14.16;97.87
37206;BME280;23099;42.636;23.198;2023-09-19T00:13:15;92385.31;;;14.16;97.95
37206;BME280;23099;42.636;23.198;2023-09-19T00:15:43;92380.38;;;14.22;97.74
37206;BME280;23099;42.636;23.198;2023-09-19T00:18:14;92369.56;;;14.14;97.97
37206;BME280;23099;42.636;23.198;2023-09-19T00:20:44;92366.88;;;14.11;97.80
37206;BME280;23099;42.636;23.198;2023-09-19T00:23:13;92368.03;;;14.13;97.99
37206;BME280;23099;42.636;23.198;2023-09-19T00:25:39;92367.25;;;14.13;97.91
37206;BME280;23099;42.636;23.198;2023-09-19T00:28:07;92356.84;;;14.08;97.72
37206;BME280;23099;42.636;23.198;2023-09-19T00:30:35;92358.00;;;14.07;97.48
37206;BME280;23099;42.636;23.198;2023-09-19T00:33:04;92353.34;;;14.04;97.90
37206;BME280;23099;42.636;23.198;2023-09-19T00:35:33;92356.41;;;14.02;98.30
37206;BME280;23099;42.636;23.198;2023-09-19T00:38:01;92354.56;;;14.10;97.75
37206;BME280;23099;42.636;23.198;2023-09-19T00:40:29;92349.94;;;14.07;98.04
37206;BME280;23099;42.636;23.198;2023-09-19T00:42:58;92354.59;;;14.17;97.89
37206;BME280;23099;42.636;23.198;2023-09-19T00:45:25;92356.88;;;14.15;97.46
37206;BME280;23099;42.636;23.198;2023-09-19T00:47:53;92364.50;;;14.06;96.77
37206;BME280;23099;42.636;23.198;2023-09-19T00:50:22;92364.06;;;14.00;97.25
37206;BME280;23099;42.636;23.198;2023-09-19T00:52:54;92356.72;;;13.90;98.09
37206;BME280;23099;42.636;23.198;2023-09-19T00:55:23;92358.22;;;13.84;98.78
37206;BME280;23099;42.636;23.198;2023-09-19T00:57:51;92353.56;;;13.81;98.73
37206;BME280;23099;42.636;23.198;2023-09-19T01:00:18;92348.50;;;13.72;97.50
37206;BME280;23099;42.636;23.198;2023-09-19T01:02:45;92361.88;;;13.65;96.47
37206;BME280;23099;42.636;23.198;2023-09-19T01:05:12;92358.00;;;13.63;96.74
37206;BME280;23099;42.636;23.198;2023-09-19T01:07:39;92350.28;;;13.58;96.35
37206;BME280;23099;42.636;23.198;2023-09-19T01:10:08;92362.97;;;13.61;97.38
37206;BME280;23099;42.636;23.198;2023-09-19T01:12:46;92356.00;;;13.56;97.90
37206;BME280;23099;42.636;23.198;2023-09-19T01:15:21;92361.38;;;13.53;98.65
37206;BME280;23099;42.636;23.198;2023-09-19T01:17:57;92360.56;;;13.49;99.39
37206;BME280;23099;42.636;23.198;2023-09-19T01:20:33;92357.06;;;13.44;100.00
37206;BME280;23099;42.636;23.198;2023-09-19T01:23:11;92366.28;;;13.47;100.00
37206;BME280;23099;42.636;23.198;2023-09-19T01:28:52;92359.47;;;13.57;100.00
37206;BME280;23099;42.636;23.198;2023-09-19T01:31:22;92357.59;;;13.61;100.00
37206;BME280;23099;42.636;23.198;2023-09-19T01:33:57;92354.91;;;13.61;99.04
37206;BME280;23099;42.636;23.198;2023-09-19T01:36:26;92365.19;;;13.52;98.65
37206;BME280;23099;42.636;23.198;2023-09-19T01:38:54;92358.59;;;13.45;98.36
37206;BME280;23099;42.636;23.198;2023-09-19T01:41:26;92360.06;;;13.36;98.10
37206;BME280;23099;42.636;23.198;2023-09-19T01:43:58;92362.63;;;13.25;98.39
37206;BME280;23099;42.636;23.198;2023-09-19T01:46:32;92354.16;;;13.23;99.71
37206;BME280;23099;42.636;23.198;2023-09-19T01:49:12;92360.22;;;13.17;100.00
37206;BME280;23099;42.636;23.198;2023-09-19T01:51:49;92368.91;;;13.06;100.00
37206;BME280;23099;42.636;23.198;2023-09-19T01:54:24;92360.81;;;13.03;100.00
37206;BME280;23099;42.636;23.198;2023-09-19T01:56:59;92355.03;;;13.01;100.00
37206;BME280;23099;42.636;23.198;2023-09-19T01:59:35;92357.72;;;13.01;100.00
37206;BME280;23099;42.636;23.198;2023-09-19T02:02:06;92366.63;;;13.08;100.00
37206;BME280;23099;42.636;23.198;2023-09-19T02:04:34;92359.66;;;13.04;100.00
37206;BME280;23099;42.636;23.198;2023-09-19T02:07:01;92360.38;;;12.97;100.00
37206;BME280;23099;42.636;23.198;2023-09-19T02:09:31;92364.97;;;12.97;100.00
37206;BME280;23099;42.636;23.198;2023-09-19T02:11:58;92347.81;;;13.05;100.00
37206;BME280;23099;42.636;23.198;2023-09-19T02:14:25;92351.34;;;13.13;100.00
37206;BME280;23099;42.636;23.198;2023-09-19T02:16:52;92351.06;;;13.21;100.00
37206;BME280;23099;42.636;23.198;2023-09-19T02:19:21;92355.34;;;13.26;100.00
37206;BME280;23099;42.636;23.198;2023-09-19T02:21:48;92344.53;;;13.19;100.00
37206;BME280;23099;42.636;23.198;2023-09-19T02:24:15;92340.22;;;13.14;100.00
37206;BME280;23099;42.636;23.198;2023-09-19T02:26:42;92347.88;;;13.12;100.00
37206;BME280;23099;42.636;23.198;2023-09-19T02:29:09;92345.16;;;13.08;100.00
37206;BME280;23099;42.636;23.198;2023-09-19T02:31:38;92346.34;;;13.11;99.74
37206;BME280;23099;42.636;23.198;2023-09-19T02:34:05;92343.97;;;13.06;100.00
37206;BME280;23099;42.636;23.198;2023-09-19T02:36:35;92338.94;;;13.01;100.00
37206;BME280;23099;42.636;23.198;2023-09-19T02:39:02;92336.66;;;13.03;100.00
37206;BME280;23099;42.636;23.198;2023-09-19T02:41:30;92333.56;;;13.01;99.51
37206;BME280;23099;42.636;23.198;2023-09-19T02:43:58;92328.91;;;12.94;100.00
37206;BME280;23099;42.636;23.198;2023-09-19T02:46:27;92320.41;;;12.89;100.00
37206;BME280;23099;42.636;23.198;2023-09-19T02:48:53;92311.94;;;12.83;100.00
37206;BME280;23099;42.636;23.198;2023-09-19T02:51:21;92317.66;;;12.82;100.00
37206;BME280;23099;42.636;23.198;2023-09-19T02:53:49;92318.81;;;12.84;100.00
37206;BME280;23099;42.636;23.198;2023-09-19T02:56:17;92320.41;;;12.89;100.00
37206;BME280;23099;42.636;23.198;2023-09-19T02:58:44;92315.03;;;12.89;100.00
37206;BME280;23099;42.636;23.198;2023-09-19T03:01:11;92308.59;;;12.93;100.00
37206;BME280;23099;42.636;23.198;2023-09-19T03:03:38;92306.72;;;12.97;100.00
37206;BME280;23099;42.636;23.198;2023-09-19T03:06:06;92294.84;;;12.98;100.00
37206;BME280;23099;42.636;23.198;2023-09-19T03:08:34;92294.50;;;13.03;100.00
37206;BME280;23099;42.636;23.198;2023-09-19T03:11:04;92293.03;;;13.09;100.00
37206;BME280;23099;42.636;23.198;2023-09-19T03:13:34;92288.84;;;13.12;100.00
37206;BME280;23099;42.636;23.198;2023-09-19T03:16:02;92288.44;;;13.10;100.00
37206;BME280;23099;42.636;23.198;2023-09-19T03:18:31;92298.41;;;13.13;99.34
37206;BME280;23099;42.636;23.198;2023-09-19T03:20:58;92299.09;;;13.03;99.20
37206;BME280;23099;42.636;23.198;2023-09-19T03:23:26;92301.38;;;13.01;99.08
37206;BME280;23099;42.636;23.198;2023-09-19T03:25:53;92305.97;;;13.00;99.05
37206;BME280;23099;42.636;23.198;2023-09-19T03:28:22;92304.59;;;12.80;99.35
37206;BME280;23099;42.636;23.198;2023-09-19T03:30:58;92303.41;;;12.78;99.55
37206;BME280;23099;42.636;23.198;2023-09-19T03:33:25;92305.63;;;12.68;99.80
37206;BME280;23099;42.636;23.198;2023-09-19T03:35:52;92314.34;;;12.62;100.00
37206;BME280;23099;42.636;23.198;2023-09-19T03:38:19;92313.53;;;12.58;100.00
37206;BME280;23099;42.636;23.198;2023-09-19T03:40:47;92318.84;;;12.54;100.00
37206;BME280;23099;42.636;23.198;2023-09-19T03:43:14;92319.72;;;12.62;100.00
37206;BME280;23099;42.636;23.198;2023-09-19T03:45:42;92318.22;;;12.64;100.00
37206;BME280;23099;42.636;23.198;2023-09-19T03:48:08;92328.56;;;12.66;100.00
37206;BME280;23099;42.636;23.198;2023-09-19T03:50:35;92325.13;;;12.65;100.00
37206;BME280;23099;42.636;23.198;2023-09-19T03:53:02;92325.13;;;12.65;100.00
37206;BME280;23099;42.636;23.198;2023-09-19T03:55:29;92322.06;;;12.67;100.00
37206;BME280;23099;42.636;23.198;2023-09-19T03:57:56;92325.94;;;12.69;100.00
37206;BME280;23099;42.636;23.198;2023-09-19T04:00:22;92325.56;;;12.71;100.00
37206;BME280;23099;42.636;23.198;2023-09-19T04:02:53;92322.06;;;12.67;100.00
37206;BME280;23099;42.636;23.198;2023-09-19T04:05:21;92333.16;;;12.65;100.00
37206;BME280;23099;42.636;23.198;2023-09-19T04:07:48;92328.16;;;12.64;100.00
37206;BME280;23099;42.636;23.198;2023-09-19T04:10:15;92336.22;;;12.64;100.00
37206;BME280;23099;42.636;23.198;2023-09-19T04:12:50;92341.03;;;12.51;100.00
37206;BME280;23099;42.636;23.198;2023-09-19T04:15:17;92342.16;;;12.50;100.00
37206;BME280;23099;42.636;23.198;2023-09-19T04:17:44;92338.56;;;12.39;100.00
37206;BME280;23099;42.636;23.198;2023-09-19T04:20:12;92348.56;;;12.42;100.00
37206;BME280;23099;42.636;23.198;2023-09-19T04:22:39;92333.25;;;12.43;100.00
37206;BME280;23099;42.636;23.198;2023-09-19T04:25:06;92338.28;;;12.48;100.00
37206;BME280;23099;42.636;23.198;2023-09-19T04:27:33;92327.94;;;12.46;100.00
37206;BME280;23099;42.636;23.198;2023-09-19T04:30:00;92326.38;;;12.45;100.00
37206;BME280;23099;42.636;23.198;2023-09-19T04:32:29;92325.31;;;12.50;100.00
37206;BME280;23099;42.636;23.198;2023-09-19T04:34:57;92325.31;;;12.50;100.00
37206;BME280;23099;42.636;23.198;2023-09-19T04:37:28;92319.22;;;12.53;100.00
37206;BME280;23099;42.636;23.198;2023-09-19T04:39:55;92311.19;;;12.53;100.00
37206;BME280;23099;42.636;23.198;2023-09-19T04:42:22;92304.69;;;12.57;100.00
37206;BME280;23099;42.636;23.198;2023-09-19T04:44:50;92311.25;;;12.60;100.00
37206;BME280;23099;42.636;23.198;2023-09-19T04:47:19;92313.22;;;12.63;100.00
37206;BME280;23099;42.636;23.198;2023-09-19T04:49:46;92304.88;;;12.71;100.00
37206;BME280;23099;42.636;23.198;2023-09-19T04:52:13;92306.50;;;12.80;100.00
37206;BME280;23099;42.636;23.198;2023-09-19T04:54:42;92306.56;;;12.87;100.00
37206;BME280;23099;42.636;23.198;2023-09-19T04:57:09;92313.53;;;12.91;100.00
37206;BME280;23099;42.636;23.198;2023-09-19T04:59:35;92308.22;;;12.95;100.00
37206;BME280;23099;42.636;23.198;2023-09-19T05:02:03;92305.19;;;13.00;100.00
37206;BME280;23099;42.636;23.198;2023-09-19T05:04:30;92296.50;;;13.14;100.00
37206;BME280;23099;42.636;23.198;2023-09-19T05:06:57;92303.59;;;13.25;100.00
37206;BME280;23099;42.636;23.198;2023-09-19T05:09:26;92292.56;;;13.37;100.00
37206;BME280;23099;42.636;23.198;2023-09-19T05:11:54;92303.41;;;13.48;100.00
37206;BME280;23099;42.636;23.198;2023-09-19T05:14:21;92308.47;;;13.60;100.00
37206;BME280;23099;42.636;23.198;2023-09-19T05:16:48;92305.16;;;13.74;100.00
37206;BME280;23099;42.636;23.198;2023-09-19T05:19:15;92307.53;;;13.83;100.00
37206;BME280;23099;42.636;23.198;2023-09-19T05:21:42;92306.44;;;13.91;100.00
37206;BME280;23099;42.636;23.198;2023-09-19T05:24:09;92299.56;;;14.00;100.00
37206;BME280;23099;42.636;23.198;2023-09-19T05:26:36;92299.25;;;14.09;100.00
37206;BME280;23099;42.636;23.198;2023-09-19T05:29:04;92302.38;;;14.18;100.00
37206;BME280;23099;42.636;23.198;2023-09-19T05:31:33;92299.34;;;14.23;100.00
37206;BME280;23099;42.636;23.198;2023-09-19T05:34:01;92292.09;;;14.31;100.00
37206;BME280;23099;42.636;23.198;2023-09-19T05:36:28;92299.50;;;14.41;100.00
37206;BME280;23099;42.636;23.198;2023-09-19T05:38:56;92296.81;;;14.48;100.00
37206;BME280;23099;42.636;23.198;2023-09-19T05:41:22;92296.09;;;14.55;100.00
37206;BME280;23099;42.636;23.198;2023-09-19T05:43:49;92294.22;;;14.66;100.00
37206;BME280;23099;42.636;23.198;2023-09-19T05:46:18;92304.25;;;14.76;98.89
37206;BME280;23099;42.636;23.198;2023-09-19T05:48:45;92297.00;;;14.83;98.66
37206;BME280;23099;42.636;23.198;2023-09-19T05:51:15;92301.63;;;14.94;98.78
37206;BME280;23099;42.636;23.198;2023-09-19T05:53:43;92291.28;;;15.03;98.48
37206;BME280;23099;42.636;23.198;2023-09-19T05:56:09;92287.47;;;15.11;98.19
37206;BME280;23099;42.636;23.198;2023-09-19T05:58:36;92291.31;;;15.20;98.11
37206;BME280;23099;42.636;23.198;2023-09-19T06:01:03;92281.72;;;15.30;97.83
37206;BME280;23099;42.636;23.198;2023-09-19T06:03:34;92274.81;;;15.36;97.86
37206;BME280;23099;42.636;23.198;2023-09-19T06:06:01;92280.59;;;15.38;97.98
37206;BME280;23099;42.636;23.198;2023-09-19T06:08:27;92279.06;;;15.48;96.72
37206;BME280;23099;42.636;23.198;2023-09-19T06:10:56;92284.44;;;15.51;96.28
37206;BME280;23099;42.636;23.198;2023-09-19T06:13:23;92281.38;;;15.53;96.01
37206;BME280;23099;42.636;23.198;2023-09-19T06:15:52;92285.66;;;15.58;95.53
37206;BME280;23099;42.636;23.198;2023-09-19T06:18:19;92275.25;;;15.67;95.42
37206;BME280;23099;42.636;23.198;2023-09-19T06:20:47;92274.88;;;15.72;95.21
37206;BME280;23099;42.636;23.198;2023-09-19T06:23:16;92275.25;;;15.77;94.85
37206;BME280;23099;42.636;23.198;2023-09-19T06:25:45;92259.84;;;15.74;94.30
37206;BME280;23099;42.636;23.198;2023-09-19T06:28:12;92267.56;;;15.83;93.90
37206;BME280;23099;42.636;23.198;2023-09-19T06:30:40;92274.47;;;15.91;93.54
37206;BME280;23099;42.636;23.198;2023-09-19T06:33:07;92281.41;;;15.96;93.72
37206;BME280;23099;42.636;23.198;2023-09-19T06:35:34;92277.91;;;16.02;93.18
37206;BME280;23099;42.636;23.198;2023-09-19T06:38:04;92279.06;;;16.05;93.24
37206;BME280;23099;42.636;23.198;2023-09-19T06:40:31;92288.69;;;16.16;93.00
37206;BME280;23099;42.636;23.198;2023-09-19T06:42:58;92286.00;;;16.20;93.00
37206;BME280;23099;42.636;23.198;2023-09-19T06:45:27;92287.91;;;16.23;92.48
37206;BME280;23099;42.636;23.198;2023-09-19T06:47:54;92291.00;;;16.29;91.86
37206;BME280;23099;42.636;23.198;2023-09-19T06:50:23;92288.66;;;16.34;92.63
37206;BME280;23099;42.636;23.198;2023-09-19T06:52:51;92304.06;;;16.41;92.45
37206;BME280;23099;42.636;23.198;2023-09-19T06:55:21;92294.44;;;16.43;91.70
37206;BME280;23099;42.636;23.198;2023-09-19T06:57:50;92304.81;;;16.52;91.48
37206;BME280;23099;42.636;23.198;2023-09-19T07:00:19;92305.19;;;16.50;90.74
37206;BME280;23099;42.636;23.198;2023-09-19T07:02:55;92302.88;;;16.63;90.36
37206;BME280;23099;42.636;23.198;2023-09-19T07:05:22;92305.19;;;16.68;90.14
37206;BME280;23099;42.636;23.198;2023-09-19T07:07:50;92307.88;;;16.72;90.36
37206;BME280;23099;42.636;23.198;2023-09-19T07:10:17;92299.38;;;16.77;90.10
37206;BME280;23099;42.636;23.198;2023-09-19T07:12:46;92299.75;;;16.86;89.76
37206;BME280;23099;42.636;23.198;2023-09-19T07:15:13;92301.63;;;16.92;89.79
37206;BME280;23099;42.636;23.198;2023-09-19T07:17:40;92309.72;;;16.96;89.28
37206;BME280;23099;42.636;23.198;2023-09-19T07:20:07;92306.19;;;17.03;90.10
37206;BME280;23099;42.636;23.198;2023-09-19T07:22:35;92306.19;;;17.13;89.16
37206;BME280;23099;42.636;23.198;2023-09-19T07:25:05;92308.06;;;17.20;88.79
37206;BME280;23099;42.636;23.198;2023-09-19T07:27:31;92310.75;;;17.27;88.40
37206;BME280;23099;42.636;23.198;2023-09-19T07:30:00;92310.72;;;17.30;88.31
37206;BME280;23099;42.636;23.198;2023-09-19T07:32:27;92321.88;;;17.36;88.00
37206;BME280;23099;42.636;23.198;2023-09-19T07:34:53;92309.91;;;17.37;87.62
37206;BME280;23099;42.636;23.198;2023-09-19T07:37:20;92312.19;;;17.42;87.47
37206;BME280;23099;42.636;23.198;2023-09-19T07:39:47;92312.53;;;17.48;87.72
37206;BME280;23099;42.636;23.198;2023-09-19T07:42:14;92319.53;;;17.45;87.75
37206;BME280;23099;42.636;23.198;2023-09-19T07:44:43;92311.75;;;17.47;87.79
37206;BME280;23099;42.636;23.198;2023-09-19T07:47:13;92309.44;;;17.53;86.53
37206;BME280;23099;42.636;23.198;2023-09-19T07:49:40;92310.19;;;17.57;88.11
37206;BME280;23099;42.636;23.198;2023-09-19T07:52:08;92313.28;;;17.55;86.66
37206;BME280;23099;42.636;23.198;2023-09-19T07:54:34;92317.84;;;17.62;86.04
37206;BME280;23099;42.636;23.198;2023-09-19T07:57:02;92314.38;;;17.65;86.80
37206;BME280;23099;42.636;23.198;2023-09-19T07:59:29;92315.47;;;17.75;86.57
37206;BME280;23099;42.636;23.198;2023-09-19T08:01:56;92301.97;;;17.75;85.00
37206;BME280;23099;42.636;23.198;2023-09-19T08:04:24;92303.91;;;17.74;85.03
37206;BME280;23099;42.636;23.198;2023-09-19T08:06:52;92296.13;;;17.83;85.50
37206;BME280;23099;42.636;23.198;2023-09-19T08:09:19;92303.00;;;17.91;85.54
37206;BME280;23099;42.636;23.198;2023-09-19T08:11:46;92295.25;;;17.93;85.01
37206;BME280;23099;42.636;23.198;2023-09-19T08:14:13;92288.66;;;18.01;84.56
37206;BME280;23099;42.636;23.198;2023-09-19T08:16:40;92288.59;;;18.05;84.08
37206;BME280;23099;42.636;23.198;2023-09-19T08:19:09;92287.75;;;18.15;83.28
37206;BME280;23099;42.636;23.198;2023-09-19T08:21:38;92284.69;;;18.13;83.11
37206;BME280;23099;42.636;23.198;2023-09-19T08:24:05;92291.16;;;18.19;83.61
37206;BME280;23099;42.636;23.198;2023-09-19T08:26:31;92288.41;;;18.26;83.30
37206;BME280;23099;42.636;23.198;2023-09-19T08:28:58;92294.53;;;18.34;82.44
37206;BME280;23099;42.636;23.198;2023-09-19T08:31:30;92304.09;;;18.46;82.69
37206;BME280;23099;42.636;23.198;2023-09-19T08:33:56;92301.66;;;18.55;81.79
37206;BME280;23099;42.636;23.198;2023-09-19T08:36:23;92308.50;;;18.70;81.83
37206;BME280;23099;42.636;23.198;2023-09-19T08:38:51;92299.91;;;18.79;80.98
37206;BME280;23099;42.636;23.198;2023-09-19T08:41:18;92298.97;;;18.92;80.53
37206;BME280;23099;42.636;23.198;2023-09-19T08:43:45;92300.06;;;18.98;80.92
37206;BME280;23099;42.636;23.198;2023-09-19T08:46:15;92292.38;;;18.93;79.74
37206;BME280;23099;42.636;23.198;2023-09-19T08:48:46;92295.53;;;18.88;79.95
37206;BME280;23099;42.636;23.198;2023-09-19T08:51:20;92293.50;;;18.96;80.23
37206;BME280;23099;42.636;23.198;2023-09-19T08:53:51;92292.59;;;19.06;80.48
37206;BME280;23099;42.636;23.198;2023-09-19T08:56:22;92297.16;;;19.16;79.77
37206;BME280;23099;42.636;23.198;2023-09-19T08:58:55;92291.22;;;19.25;79.36
37206;BME280;23099;42.636;23.198;2023-09-19T09:01:24;92297.00;;;19.27;78.60
37206;BME280;23099;42.636;23.198;2023-09-19T09:03:54;92289.97;;;19.33;78.44
37206;BME280;23099;42.636;23.198;2023-09-19T09:06:23;92290.25;;;19.38;78.16
37206;BME280;23099;42.636;23.198;2023-09-19T09:08:51;92289.78;;;19.47;78.85
37206;BME280;23099;42.636;23.198;2023-09-19T09:11:19;92294.31;;;19.57;78.22
37206;BME280;23099;42.636;23.198;2023-09-19T09:13:46;92289.84;;;19.70;77.83
37206;BME280;23099;42.636;23.198;2023-09-19T09:16:13;92290.09;;;19.80;75.97
37206;BME280;23099;42.636;23.198;2023-09-19T09:18:44;92279.97;;;19.84;76.01
37206;BME280;23099;42.636;23.198;2023-09-19T09:21:11;92268.66;;;19.89;75.79
37206;BME280;23099;42.636;23.198;2023-09-19T09:23:41;92266.63;;;19.93;75.48
37206;BME280;23099;42.636;23.198;2023-09-19T09:26:09;92265.41;;;19.97;75.75
37206;BME280;23099;42.636;23.198;2023-09-19T09:28:36;92258.00;;;20.01;75.93
37206;BME280;23099;42.636;23.198;2023-09-19T09:31:22;92264.34;;;20.15;75.73
37206;BME280;23099;42.636;23.198;2023-09-19T09:33:53;92262.22;;;20.26;75.31
37206;BME280;23099;42.636;23.198;2023-09-19T09:36:33;92252.69;;;20.41;75.94
37206;BME280;23099;42.636;23.198;2023-09-19T09:39:00;92245.41;;;20.58;76.91
37206;BME280;23099;42.636;23.198;2023-09-19T09:41:42;92242.25;;;20.79;75.52
37206;BME280;23099;42.636;23.198;2023-09-19T09:44:12;92255.72;;;20.86;72.37
37206;BME280;23099;42.636;23.198;2023-09-19T09:46:42;92248.16;;;20.94;72.88
37206;BME280;23099;42.636;23.198;2023-09-19T09:49:48;92245.59;;;21.06;72.17
37206;BME280;23099;42.636;23.198;2023-09-19T09:52:19;92253.66;;;21.10;72.53
37206;BME280;23099;42.636;23.198;2023-09-19T09:54:58;92245.09;;;21.11;71.77
37206;BME280;23099;42.636;23.198;2023-09-19T09:57:27;92243.50;;;21.14;71.31
37206;BME280;23099;42.636;23.198;2023-09-19T09:59:56;92245.81;;;21.15;71.85
37206;BME280;23099;42.636;23.198;2023-09-19T10:02:26;92242.38;;;21.11;72.23
37206;BME280;23099;42.636;23.198;2023-09-19T10:04:58;92241.69;;;21.07;71.50
37206;BME280;23099;42.636;23.198;2023-09-19T10:07:35;92236.41;;;21.00;71.21
37206;BME280;23099;42.636;23.198;2023-09-19T10:10:07;92232.94;;;21.00;72.29
37206;BME280;23099;42.636;23.198;2023-09-19T10:12:44;92235.28;;;20.98;71.92
37206;BME280;23099;42.636;23.198;2023-09-19T10:15:16;92244.56;;;21.00;72.26
37206;BME280;23099;42.636;23.198;2023-09-19T10:17:46;92247.28;;;21.00;71.82
37206;BME280;23099;42.636;23.198;2023-09-19T10:20:15;92240.25;;;21.03;71.65
37206;BME280;23099;42.636;23.198;2023-09-19T10:23:05;92241.91;;;20.97;71.77
37206;BME280;23099;42.636;23.198;2023-09-19T10:25:37;92251.59;;;20.98;71.83
37206;BME280;23099;42.636;23.198;2023-09-19T10:28:06;92240.13;;;20.90;71.65
37206;BME280;23099;42.636;23.198;2023-09-19T10:30:37;92240.13;;;20.90;72.36
37206;BME280;23099;42.636;23.198;2023-09-19T10:33:09;92247.97;;;20.85;71.45
37206;BME280;23099;42.636;23.198;2023-09-19T10:35:38;92236.41;;;20.80;72.38
37206;BME280;23099;42.636;23.198;2023-09-19T10:38:07;92242.69;;;20.97;72.36
37206;BME280;23099;42.636;23.198;2023-09-19T10:40:36;92241.38;;;21.05;72.34
37206;BME280;23099;42.636;23.198;2023-09-19T10:43:11;92236.88;;;21.15;71.89
37206;BME280;23099;42.636;23.198;2023-09-19T10:45:39;92228.53;;;21.26;71.73
37206;BME280;23099;42.636;23.198;2023-09-19T10:48:06;92214.84;;;21.29;71.57
37206;BME280;23099;42.636;23.198;2023-09-19T10:50:41;92220.47;;;21.38;71.59
37206;BME280;23099;42.636;23.198;2023-09-19T10:53:11;92230.50;;;21.41;70.79
37206;BME280;23099;42.636;23.198;2023-09-19T10:55:39;92228.56;;;21.42;70.53
37206;BME280;23099;42.636;23.198;2023-09-19T10:58:06;92219.97;;;21.43;70.10
37206;BME280;23099;42.636;23.198;2023-09-19T11:00:53;92215.59;;;21.49;71.14
37206;BME280;23099;42.636;23.198;2023-09-19T11:03:21;92222.81;;;21.56;70.54
37206;BME280;23099;42.636;23.198;2023-09-19T11:06:06;92218.53;;;21.55;69.94
37206;BME280;23099;42.636;23.198;2023-09-19T11:09:00;92213.81;;;21.59;69.33
37206;BME280;23099;42.636;23.198;2023-09-19T11:11:43;92206.16;;;21.70;69.01
37206;BME280;23099;42.636;23.198;2023-09-19T11:14:16;92216.13;;;21.77;68.85
37206;BME280;23099;42.636;23.198;2023-09-19T11:20:22;92203.13;;;22.01;68.56
37206;BME280;23099;42.636;23.198;2023-09-19T11:23:18;92198.16;;;22.28;66.53
37206;BME280;23099;42.636;23.198;2023-09-19T11:25:44;92204.78;;;22.56;66.77
37206;BME280;23099;42.636;23.198;2023-09-19T11:28:34;92199.47;;;22.65;65.13
37206;BME280;23099;42.636;23.198;2023-09-19T11:34:42;92193.56;;;22.54;64.93
37206;BME280;23099;42.636;23.198;2023-09-19T11:40:15;92182.09;;;22.46;65.60
37206;BME280;23099;42.636;23.198;2023-09-19T11:42:43;92177.50;;;22.43;64.89
37206;BME280;23099;42.636;23.198;2023-09-19T11:48:23;92176.06;;;22.39;65.66
37206;BME280;23099;42.636;23.198;2023-09-19T11:50:51;92170.53;;;22.42;64.57
37206;BME280;23099;42.636;23.198;2023-09-19T11:53:19;92176.41;;;22.41;64.85
37206;BME280;23099;42.636;23.198;2023-09-19T11:55:48;92166.78;;;22.36;64.46
37206;BME280;23099;42.636;23.198;2023-09-19T11:58:15;92156.78;;;22.33;64.68
37206;BME280;23099;42.636;23.198;2023-09-19T12:00:43;92173.88;;;22.34;65.17
37206;BME280;23099;42.636;23.198;2023-09-19T12:03:12;92166.91;;;22.33;65.81
37206;BME280;23099;42.636;23.198;2023-09-19T12:05:39;92161.13;;;22.31;65.28
37206;BME280;23099;42.636;23.198;2023-09-19T12:08:07;92164.38;;;22.54;65.61
37206;BME280;23099;42.636;23.198;2023-09-19T12:10:44;92161.91;;;23.02;62.99
37206;BME280;23099;42.636;23.198;2023-09-19T12:13:16;92151.22;;;23.45;61.10
37206;BME280;23099;42.636;23.198;2023-09-19T12:15:43;92151.34;;;23.80;60.56
37206;BME280;23099;42.636;23.198;2023-09-19T12:18:11;92148.28;;;24.12;59.23
37206;BME280;23099;42.636;23.198;2023-09-19T12:20:51;92140.25;;;24.43;57.39
37206;BME280;23099;42.636;23.198;2023-09-19T12:23:19;92130.47;;;24.55;56.71
37206;BME280;23099;42.636;23.198;2023-09-19T12:25:46;92132.63;;;24.60;56.54
37206;BME280;23099;42.636;23.198;2023-09-19T12:28:19;92122.06;;;24.71;56.44
37206;BME280;23099;42.636;23.198;2023-09-19T12:30:47;92119.72;;;24.60;55.88
37206;BME280;23099;42.636;23.198;2023-09-19T12:33:16;92119.97;;;24.53;55.91
37206;BME280;23099;42.636;23.198;2023-09-19T12:35:44;92120.56;;;24.48;56.32
37206;BME280;23099;42.636;23.198;2023-09-19T12:38:11;92118.88;;;24.29;56.39
37206;BME280;23099;42.636;23.198;2023-09-19T12:40:39;92117.47;;;24.24;57.55
37206;BME280;23099;42.636;23.198;2023-09-19T12:43:08;92118.50;;;24.40;57.88
37206;BME280;23099;42.636;23.198;2023-09-19T12:45:42;92113.19;;;24.36;57.64
37206;BME280;23099;42.636;23.198;2023-09-19T12:48:21;92126.31;;;24.28;57.84
37206;BME280;23099;42.636;23.198;2023-09-19T12:51:01;92124.59;;;24.22;58.18
37206;BME280;23099;42.636;23.198;2023-09-19T12:53:32;92122.16;;;24.24;58.22
37206;BME280;23099;42.636;23.198;2023-09-19T12:56:01;92116.91;;;24.29;58.29
37206;BME280;23099;42.636;23.198;2023-09-19T12:58:32;92113.31;;;24.33;57.77
37206;BME280;23099;42.636;23.198;2023-09-19T13:01:01;92098.13;;;24.31;58.57
37206;BME280;23099;42.636;23.198;2023-09-19T13:03:30;92103.25;;;24.29;57.63
37206;BME280;23099;42.636;23.198;2023-09-19T13:06:01;92105.78;;;24.24;57.83
37206;BME280;23099;42.636;23.198;2023-09-19T13:08:30;92106.34;;;24.19;58.32
37206;BME280;23099;42.636;23.198;2023-09-19T13:11:11;92109.41;;;24.21;59.00
37206;BME280;23099;42.636;23.198;2023-09-19T13:13:40;92102.50;;;24.29;58.32
37206;BME280;23099;42.636;23.198;2023-09-19T13:16:09;92100.00;;;24.22;58.25